パラオ の空港の天気 - METARとTAF

パラオ国際空港 ( PTRO / ROR ) - パラオ アイライ州
飛行場実況気象(Metar)
観測時間09/23 07:54 PWT (09/22 22:54 UTC)
風向・風速西 4m/s
視程6450m
天気現象しゅう雨
全天を覆う雲 雲底高度 430m
気温24℃
湿度94%
気圧1011hPa
METARPTRO 222254Z 27008KT 4SM SHRA OVC014CB 24/23 A2985 RMK CB ALQDS AND OHD
過去の天気等 Google飛行場航空写真 Wunderground天気予報

過去48時間のMETAR

飛行場予報(TAF)
発表時間: 9/23 02:32 PWT (9/22 17:32 UTC)
予報対象時間: 23日3時 PWT ~ 24日3時 PWT
風向・風速北西 2m/s
視程10km以上
天気現象周辺でしゅう雨
全天の4割程度の雲 雲底高度 490m
全天の8割程度の雲 雲底高度 3660m
23日4時 PWT ~ 23日8時 PWT に一時的に
視程4830m
天気現象しゅう雨
全天の4割程度の雲 雲底高度 490m
全天の8割程度の雲 雲底高度 910m
PTRO 221732Z 2218/2318 32004KT P6SM VCSH SCT016 BKN120
TEMPO 2219/2223 3SM SHRA SCT016 BKN030